sensor_id;sensor_type;location;lat;lon;timestamp;P1;durP1;ratioP1;P2;durP2;ratioP2
75195;SDS011;63773;42.282;22.782;2023-06-26T00:01:33;17.48;;;7.43;;
75195;SDS011;63773;42.282;22.782;2023-06-26T00:03:59;15.20;;;7.32;;
75195;SDS011;63773;42.282;22.782;2023-06-26T00:06:26;19.33;;;7.60;;
75195;SDS011;63773;42.282;22.782;2023-06-26T00:08:52;18.40;;;7.45;;
75195;SDS011;63773;42.282;22.782;2023-06-26T00:11:18;16.30;;;6.85;;
75195;SDS011;63773;42.282;22.782;2023-06-26T00:13:44;16.50;;;6.88;;
75195;SDS011;63773;42.282;22.782;2023-06-26T00:16:10;14.75;;;7.82;;
75195;SDS011;63773;42.282;22.782;2023-06-26T00:18:35;18.48;;;7.20;;
75195;SDS011;63773;42.282;22.782;2023-06-26T00:21:00;18.10;;;7.80;;
75195;SDS011;63773;42.282;22.782;2023-06-26T00:23:26;15.98;;;7.63;;
75195;SDS011;63773;42.282;22.782;2023-06-26T00:25:52;15.80;;;7.25;;
75195;SDS011;63773;42.282;22.782;2023-06-26T00:28:18;14.65;;;7.00;;
75195;SDS011;63773;42.282;22.782;2023-06-26T00:30:43;15.40;;;8.35;;
75195;SDS011;63773;42.282;22.782;2023-06-26T00:33:09;13.50;;;7.03;;
75195;SDS011;63773;42.282;22.782;2023-06-26T00:35:34;16.58;;;7.63;;
75195;SDS011;63773;42.282;22.782;2023-06-26T00:38:00;15.77;;;6.68;;
75195;SDS011;63773;42.282;22.782;2023-06-26T00:40:26;16.42;;;7.97;;
75195;SDS011;63773;42.282;22.782;2023-06-26T00:42:52;14.80;;;7.45;;
75195;SDS011;63773;42.282;22.782;2023-06-26T00:45:18;14.57;;;7.20;;
75195;SDS011;63773;42.282;22.782;2023-06-26T00:47:43;16.38;;;7.47;;
75195;SDS011;63773;42.282;22.782;2023-06-26T00:50:09;13.88;;;6.80;;
75195;SDS011;63773;42.282;22.782;2023-06-26T00:52:34;13.98;;;7.07;;
75195;SDS011;63773;42.282;22.782;2023-06-26T00:55:00;14.63;;;8.60;;
75195;SDS011;63773;42.282;22.782;2023-06-26T00:57:26;14.20;;;6.75;;
75195;SDS011;63773;42.282;22.782;2023-06-26T00:59:52;17.17;;;7.70;;
75195;SDS011;63773;42.282;22.782;2023-06-26T01:02:17;17.17;;;7.13;;
75195;SDS011;63773;42.282;22.782;2023-06-26T01:04:45;16.77;;;8.70;;
75195;SDS011;63773;42.282;22.782;2023-06-26T01:07:14;15.10;;;8.38;;
75195;SDS011;63773;42.282;22.782;2023-06-26T01:09:41;16.40;;;7.63;;
75195;SDS011;63773;42.282;22.782;2023-06-26T01:12:07;16.50;;;7.53;;
75195;SDS011;63773;42.282;22.782;2023-06-26T01:14:35;18.55;;;7.65;;
75195;SDS011;63773;42.282;22.782;2023-06-26T01:17:01;14.82;;;7.75;;
75195;SDS011;63773;42.282;22.782;2023-06-26T01:19:28;19.38;;;8.05;;
75195;SDS011;63773;42.282;22.782;2023-06-26T01:21:59;15.60;;;7.35;;
75195;SDS011;63773;42.282;22.782;2023-06-26T01:24:33;16.38;;;7.28;;
75195;SDS011;63773;42.282;22.782;2023-06-26T01:30:02;18.27;;;7.20;;
75195;SDS011;63773;42.282;22.782;2023-06-26T01:32:29;13.05;;;7.03;;
75195;SDS011;63773;42.282;22.782;2023-06-26T01:34:57;14.65;;;7.20;;
75195;SDS011;63773;42.282;22.782;2023-06-26T01:37:22;14.73;;;7.35;;
75195;SDS011;63773;42.282;22.782;2023-06-26T01:39:48;14.18;;;7.53;;
75195;SDS011;63773;42.282;22.782;2023-06-26T01:42:13;12.50;;;6.78;;
75195;SDS011;63773;42.282;22.782;2023-06-26T01:44:41;14.45;;;6.85;;
75195;SDS011;63773;42.282;22.782;2023-06-26T01:47:10;14.73;;;6.70;;
75195;SDS011;63773;42.282;22.782;2023-06-26T01:57:49;16.00;;;6.63;;
75195;SDS011;63773;42.282;22.782;2023-06-26T02:00:19;13.15;;;7.20;;
75195;SDS011;63773;42.282;22.782;2023-06-26T02:02:46;14.23;;;7.22;;
75195;SDS011;63773;42.282;22.782;2023-06-26T02:05:12;14.60;;;7.13;;
75195;SDS011;63773;42.282;22.782;2023-06-26T02:07:38;13.75;;;7.45;;
75195;SDS011;63773;42.282;22.782;2023-06-26T02:10:03;14.63;;;6.80;;
75195;SDS011;63773;42.282;22.782;2023-06-26T02:12:29;14.38;;;8.00;;
75195;SDS011;63773;42.282;22.782;2023-06-26T02:14:54;17.98;;;7.78;;
75195;SDS011;63773;42.282;22.782;2023-06-26T02:17:20;15.63;;;8.10;;
75195;SDS011;63773;42.282;22.782;2023-06-26T02:19:45;18.38;;;8.77;;
75195;SDS011;63773;42.282;22.782;2023-06-26T02:22:14;16.48;;;7.88;;
75195;SDS011;63773;42.282;22.782;2023-06-26T02:24:40;14.68;;;6.93;;
75195;SDS011;63773;42.282;22.782;2023-06-26T02:27:06;17.33;;;7.35;;
75195;SDS011;63773;42.282;22.782;2023-06-26T02:29:31;14.98;;;7.95;;
75195;SDS011;63773;42.282;22.782;2023-06-26T02:31:56;13.68;;;7.53;;
75195;SDS011;63773;42.282;22.782;2023-06-26T02:34:22;13.90;;;7.20;;
75195;SDS011;63773;42.282;22.782;2023-06-26T02:36:47;13.55;;;7.60;;
75195;SDS011;63773;42.282;22.782;2023-06-26T02:39:13;13.85;;;7.07;;
75195;SDS011;63773;42.282;22.782;2023-06-26T02:41:39;15.57;;;7.05;;
75195;SDS011;63773;42.282;22.782;2023-06-26T02:44:04;18.05;;;7.75;;
75195;SDS011;63773;42.282;22.782;2023-06-26T02:46:31;16.48;;;7.63;;
75195;SDS011;63773;42.282;22.782;2023-06-26T02:48:56;13.73;;;6.90;;
75195;SDS011;63773;42.282;22.782;2023-06-26T02:51:22;19.25;;;7.57;;
75195;SDS011;63773;42.282;22.782;2023-06-26T02:53:47;14.68;;;6.55;;
75195;SDS011;63773;42.282;22.782;2023-06-26T02:56:12;15.80;;;7.85;;
75195;SDS011;63773;42.282;22.782;2023-06-26T02:58:38;14.52;;;7.03;;
75195;SDS011;63773;42.282;22.782;2023-06-26T03:01:03;15.43;;;6.50;;
75195;SDS011;63773;42.282;22.782;2023-06-26T03:03:29;16.95;;;6.82;;
75195;SDS011;63773;42.282;22.782;2023-06-26T03:05:54;17.38;;;6.53;;
75195;SDS011;63773;42.282;22.782;2023-06-26T03:08:19;16.25;;;7.15;;
75195;SDS011;63773;42.282;22.782;2023-06-26T03:10:45;22.70;;;7.85;;
75195;SDS011;63773;42.282;22.782;2023-06-26T03:13:10;20.63;;;7.45;;
75195;SDS011;63773;42.282;22.782;2023-06-26T03:15:35;18.83;;;6.75;;
75195;SDS011;63773;42.282;22.782;2023-06-26T03:18:01;14.80;;;6.60;;
75195;SDS011;63773;42.282;22.782;2023-06-26T03:20:26;16.27;;;7.13;;
75195;SDS011;63773;42.282;22.782;2023-06-26T03:22:52;15.85;;;6.68;;
75195;SDS011;63773;42.282;22.782;2023-06-26T03:25:17;18.00;;;7.20;;
75195;SDS011;63773;42.282;22.782;2023-06-26T03:27:42;14.27;;;6.70;;
75195;SDS011;63773;42.282;22.782;2023-06-26T03:30:08;14.43;;;7.15;;
75195;SDS011;63773;42.282;22.782;2023-06-26T03:32:34;15.70;;;7.22;;
75195;SDS011;63773;42.282;22.782;2023-06-26T03:34:59;16.45;;;6.70;;
75195;SDS011;63773;42.282;22.782;2023-06-26T03:37:28;15.52;;;7.25;;
75195;SDS011;63773;42.282;22.782;2023-06-26T03:39:53;17.20;;;6.93;;
75195;SDS011;63773;42.282;22.782;2023-06-26T03:42:19;13.68;;;7.50;;
75195;SDS011;63773;42.282;22.782;2023-06-26T03:44:44;19.13;;;7.75;;
75195;SDS011;63773;42.282;22.782;2023-06-26T03:47:10;14.80;;;7.72;;
75195;SDS011;63773;42.282;22.782;2023-06-26T03:49:35;14.70;;;7.80;;
75195;SDS011;63773;42.282;22.782;2023-06-26T03:52:00;17.13;;;7.60;;
75195;SDS011;63773;42.282;22.782;2023-06-26T03:54:26;17.08;;;8.20;;
75195;SDS011;63773;42.282;22.782;2023-06-26T03:56:51;19.40;;;8.15;;
75195;SDS011;63773;42.282;22.782;2023-06-26T03:59:17;13.75;;;7.63;;
75195;SDS011;63773;42.282;22.782;2023-06-26T04:01:42;17.42;;;7.80;;
75195;SDS011;63773;42.282;22.782;2023-06-26T04:04:08;14.70;;;7.07;;
75195;SDS011;63773;42.282;22.782;2023-06-26T04:06:34;13.07;;;7.07;;
75195;SDS011;63773;42.282;22.782;2023-06-26T04:08:59;13.93;;;8.05;;
75195;SDS011;63773;42.282;22.782;2023-06-26T04:14:46;24.65;;;13.75;;
75195;SDS011;63773;42.282;22.782;2023-06-26T04:17:11;23.98;;;8.65;;
75195;SDS011;63773;42.282;22.782;2023-06-26T04:19:37;14.45;;;8.13;;
75195;SDS011;63773;42.282;22.782;2023-06-26T04:22:02;15.25;;;7.93;;
75195;SDS011;63773;42.282;22.782;2023-06-26T04:24:28;16.27;;;7.93;;
75195;SDS011;63773;42.282;22.782;2023-06-26T04:26:53;15.57;;;7.70;;
75195;SDS011;63773;42.282;22.782;2023-06-26T04:29:22;12.95;;;7.40;;
75195;SDS011;63773;42.282;22.782;2023-06-26T04:31:50;17.80;;;8.10;;
75195;SDS011;63773;42.282;22.782;2023-06-26T04:34:24;14.13;;;8.00;;
75195;SDS011;63773;42.282;22.782;2023-06-26T04:36:50;15.00;;;7.93;;
75195;SDS011;63773;42.282;22.782;2023-06-26T04:39:15;14.10;;;7.22;;
75195;SDS011;63773;42.282;22.782;2023-06-26T04:41:41;18.85;;;7.90;;
75195;SDS011;63773;42.282;22.782;2023-06-26T04:44:06;15.98;;;7.50;;
75195;SDS011;63773;42.282;22.782;2023-06-26T04:46:32;16.20;;;8.18;;
75195;SDS011;63773;42.282;22.782;2023-06-26T04:48:57;16.33;;;7.93;;
75195;SDS011;63773;42.282;22.782;2023-06-26T04:51:23;14.50;;;7.53;;
75195;SDS011;63773;42.282;22.782;2023-06-26T04:53:53;14.85;;;7.72;;
75195;SDS011;63773;42.282;22.782;2023-06-26T04:56:19;15.50;;;7.90;;
75195;SDS011;63773;42.282;22.782;2023-06-26T04:58:44;15.18;;;8.10;;
75195;SDS011;63773;42.282;22.782;2023-06-26T05:01:10;17.70;;;8.77;;
75195;SDS011;63773;42.282;22.782;2023-06-26T05:03:38;17.05;;;8.82;;
75195;SDS011;63773;42.282;22.782;2023-06-26T05:06:04;18.35;;;9.77;;
75195;SDS011;63773;42.282;22.782;2023-06-26T05:08:29;18.13;;;9.65;;
75195;SDS011;63773;42.282;22.782;2023-06-26T05:10:55;21.02;;;9.18;;
75195;SDS011;63773;42.282;22.782;2023-06-26T05:13:23;17.80;;;10.18;;
75195;SDS011;63773;42.282;22.782;2023-06-26T05:15:49;16.15;;;9.30;;
75195;SDS011;63773;42.282;22.782;2023-06-26T05:18:14;17.75;;;10.65;;
75195;SDS011;63773;42.282;22.782;2023-06-26T05:20:40;17.05;;;9.85;;
75195;SDS011;63773;42.282;22.782;2023-06-26T05:23:05;19.25;;;11.20;;
75195;SDS011;63773;42.282;22.782;2023-06-26T05:25:32;20.92;;;11.45;;
75195;SDS011;63773;42.282;22.782;2023-06-26T05:27:59;18.27;;;11.02;;
75195;SDS011;63773;42.282;22.782;2023-06-26T05:30:25;17.98;;;10.77;;
75195;SDS011;63773;42.282;22.782;2023-06-26T05:32:52;17.25;;;10.20;;
75195;SDS011;63773;42.282;22.782;2023-06-26T05:35:18;18.77;;;10.40;;
75195;SDS011;63773;42.282;22.782;2023-06-26T05:37:45;18.13;;;11.70;;
75195;SDS011;63773;42.282;22.782;2023-06-26T05:40:13;15.80;;;11.23;;
75195;SDS011;63773;42.282;22.782;2023-06-26T05:42:39;20.30;;;11.35;;
75195;SDS011;63773;42.282;22.782;2023-06-26T05:45:05;17.52;;;11.10;;
75195;SDS011;63773;42.282;22.782;2023-06-26T05:47:30;16.15;;;10.25;;
75195;SDS011;63773;42.282;22.782;2023-06-26T05:49:56;15.95;;;10.45;;
75195;SDS011;63773;42.282;22.782;2023-06-26T05:52:21;17.38;;;10.65;;
75195;SDS011;63773;42.282;22.782;2023-06-26T05:54:47;17.25;;;10.85;;
75195;SDS011;63773;42.282;22.782;2023-06-26T05:57:13;18.02;;;11.07;;
75195;SDS011;63773;42.282;22.782;2023-06-26T06:02:06;16.33;;;11.23;;
75195;SDS011;63773;42.282;22.782;2023-06-26T06:04:32;22.45;;;11.77;;
75195;SDS011;63773;42.282;22.782;2023-06-26T06:06:57;16.48;;;10.07;;
75195;SDS011;63773;42.282;22.782;2023-06-26T06:09:22;17.95;;;10.48;;
75195;SDS011;63773;42.282;22.782;2023-06-26T06:11:48;18.23;;;11.43;;
75195;SDS011;63773;42.282;22.782;2023-06-26T06:14:13;18.10;;;11.05;;
75195;SDS011;63773;42.282;22.782;2023-06-26T06:16:38;19.40;;;12.15;;
75195;SDS011;63773;42.282;22.782;2023-06-26T06:19:04;16.85;;;11.68;;
75195;SDS011;63773;42.282;22.782;2023-06-26T06:21:49;18.75;;;11.68;;
75195;SDS011;63773;42.282;22.782;2023-06-26T06:24:15;22.30;;;13.02;;
75195;SDS011;63773;42.282;22.782;2023-06-26T06:26:40;16.50;;;12.57;;
75195;SDS011;63773;42.282;22.782;2023-06-26T06:29:05;19.02;;;11.50;;
75195;SDS011;63773;42.282;22.782;2023-06-26T06:31:31;17.63;;;12.88;;
75195;SDS011;63773;42.282;22.782;2023-06-26T06:33:57;19.20;;;12.75;;
75195;SDS011;63773;42.282;22.782;2023-06-26T06:36:22;19.42;;;13.18;;
75195;SDS011;63773;42.282;22.782;2023-06-26T06:38:48;22.35;;;13.10;;
75195;SDS011;63773;42.282;22.782;2023-06-26T06:41:13;15.27;;;11.82;;
75195;SDS011;63773;42.282;22.782;2023-06-26T06:43:39;15.07;;;11.95;;
75195;SDS011;63773;42.282;22.782;2023-06-26T06:46:04;19.35;;;12.68;;
75195;SDS011;63773;42.282;22.782;2023-06-26T06:48:30;18.25;;;12.82;;
75195;SDS011;63773;42.282;22.782;2023-06-26T06:50:56;14.82;;;11.85;;
75195;SDS011;63773;42.282;22.782;2023-06-26T06:53:22;16.83;;;12.80;;
75195;SDS011;63773;42.282;22.782;2023-06-26T06:55:48;16.30;;;12.45;;
75195;SDS011;63773;42.282;22.782;2023-06-26T06:58:14;15.15;;;12.05;;
75195;SDS011;63773;42.282;22.782;2023-06-26T07:00:41;14.85;;;11.85;;
75195;SDS011;63773;42.282;22.782;2023-06-26T07:03:07;15.82;;;12.60;;
75195;SDS011;63773;42.282;22.782;2023-06-26T07:05:32;17.90;;;13.45;;
75195;SDS011;63773;42.282;22.782;2023-06-26T07:07:57;14.88;;;11.85;;
75195;SDS011;63773;42.282;22.782;2023-06-26T07:10:23;15.18;;;12.95;;
75195;SDS011;63773;42.282;22.782;2023-06-26T07:12:48;16.75;;;12.80;;
75195;SDS011;63773;42.282;22.782;2023-06-26T07:15:14;15.60;;;12.13;;
75195;SDS011;63773;42.282;22.782;2023-06-26T07:17:39;15.32;;;11.18;;
75195;SDS011;63773;42.282;22.782;2023-06-26T07:20:05;14.43;;;10.57;;
75195;SDS011;63773;42.282;22.782;2023-06-26T07:22:35;18.20;;;12.73;;
75195;SDS011;63773;42.282;22.782;2023-06-26T07:27:27;26.40;;;14.73;;
75195;SDS011;63773;42.282;22.782;2023-06-26T07:29:52;167.45;;;44.83;;
75195;SDS011;63773;42.282;22.782;2023-06-26T07:32:18;130.02;;;40.95;;
75195;SDS011;63773;42.282;22.782;2023-06-26T07:34:43;42.25;;;16.98;;
75195;SDS011;63773;42.282;22.782;2023-06-26T07:37:08;22.77;;;13.98;;
75195;SDS011;63773;42.282;22.782;2023-06-26T07:39:34;30.00;;;14.05;;
75195;SDS011;63773;42.282;22.782;2023-06-26T07:41:59;28.60;;;14.93;;
75195;SDS011;63773;42.282;22.782;2023-06-26T07:44:25;16.98;;;11.60;;
75195;SDS011;63773;42.282;22.782;2023-06-26T07:46:51;16.75;;;12.23;;
75195;SDS011;63773;42.282;22.782;2023-06-26T07:49:16;16.33;;;12.60;;
75195;SDS011;63773;42.282;22.782;2023-06-26T07:51:41;239.20;;;60.58;;
75195;SDS011;63773;42.282;22.782;2023-06-26T07:54:07;90.60;;;28.92;;
75195;SDS011;63773;42.282;22.782;2023-06-26T07:56:51;18.48;;;12.75;;
75195;SDS011;63773;42.282;22.782;2023-06-26T07:59:25;15.20;;;12.80;;
75195;SDS011;63773;42.282;22.782;2023-06-26T08:01:52;15.50;;;12.88;;
75195;SDS011;63773;42.282;22.782;2023-06-26T08:04:19;16.20;;;12.80;;
75195;SDS011;63773;42.282;22.782;2023-06-26T08:09:14;18.02;;;12.15;;
75195;SDS011;63773;42.282;22.782;2023-06-26T08:11:39;18.58;;;12.57;;
75195;SDS011;63773;42.282;22.782;2023-06-26T08:14:05;21.88;;;12.32;;
75195;SDS011;63773;42.282;22.782;2023-06-26T08:16:30;17.05;;;11.68;;
75195;SDS011;63773;42.282;22.782;2023-06-26T08:18:56;15.27;;;11.55;;
75195;SDS011;63773;42.282;22.782;2023-06-26T08:21:21;28.83;;;15.30;;
75195;SDS011;63773;42.282;22.782;2023-06-26T08:23:47;30.00;;;15.73;;
75195;SDS011;63773;42.282;22.782;2023-06-26T08:26:13;16.55;;;12.25;;
75195;SDS011;63773;42.282;22.782;2023-06-26T08:28:38;17.23;;;13.10;;
75195;SDS011;63773;42.282;22.782;2023-06-26T08:31:04;15.48;;;11.77;;
75195;SDS011;63773;42.282;22.782;2023-06-26T08:33:29;16.67;;;12.15;;
75195;SDS011;63773;42.282;22.782;2023-06-26T08:35:54;14.57;;;11.40;;
75195;SDS011;63773;42.282;22.782;2023-06-26T08:38:20;18.17;;;13.43;;
75195;SDS011;63773;42.282;22.782;2023-06-26T08:40:46;14.45;;;11.80;;
75195;SDS011;63773;42.282;22.782;2023-06-26T08:43:12;17.08;;;13.63;;
75195;SDS011;63773;42.282;22.782;2023-06-26T08:45:37;17.42;;;13.90;;
75195;SDS011;63773;42.282;22.782;2023-06-26T08:48:03;15.10;;;12.45;;
75195;SDS011;63773;42.282;22.782;2023-06-26T08:50:33;16.40;;;12.25;;
75195;SDS011;63773;42.282;22.782;2023-06-26T08:53:09;16.42;;;12.35;;
75195;SDS011;63773;42.282;22.782;2023-06-26T08:55:46;17.00;;;11.90;;
75195;SDS011;63773;42.282;22.782;2023-06-26T08:58:17;16.38;;;12.48;;
75195;SDS011;63773;42.282;22.782;2023-06-26T09:00:42;17.17;;;12.38;;
75195;SDS011;63773;42.282;22.782;2023-06-26T09:03:08;15.07;;;10.43;;
75195;SDS011;63773;42.282;22.782;2023-06-26T09:05:34;12.95;;;10.70;;
75195;SDS011;63773;42.282;22.782;2023-06-26T09:08:00;15.00;;;10.13;;
75195;SDS011;63773;42.282;22.782;2023-06-26T09:10:26;13.90;;;10.10;;
75195;SDS011;63773;42.282;22.782;2023-06-26T09:12:51;10.90;;;8.27;;
75195;SDS011;63773;42.282;22.782;2023-06-26T09:15:20;12.23;;;9.02;;
75195;SDS011;63773;42.282;22.782;2023-06-26T09:17:47;11.55;;;9.20;;
75195;SDS011;63773;42.282;22.782;2023-06-26T09:20:13;13.48;;;9.45;;
75195;SDS011;63773;42.282;22.782;2023-06-26T09:22:40;9.85;;;8.63;;
75195;SDS011;63773;42.282;22.782;2023-06-26T09:25:07;10.55;;;8.07;;
75195;SDS011;63773;42.282;22.782;2023-06-26T09:27:33;13.35;;;8.95;;
75195;SDS011;63773;42.282;22.782;2023-06-26T09:29:59;10.25;;;7.65;;
75195;SDS011;63773;42.282;22.782;2023-06-26T09:32:27;10.75;;;8.40;;
75195;SDS011;63773;42.282;22.782;2023-06-26T09:34:53;10.55;;;8.25;;
75195;SDS011;63773;42.282;22.782;2023-06-26T09:37:21;11.00;;;8.77;;
75195;SDS011;63773;42.282;22.782;2023-06-26T09:39:48;9.65;;;7.07;;
75195;SDS011;63773;42.282;22.782;2023-06-26T09:42:14;10.23;;;7.40;;
75195;SDS011;63773;42.282;22.782;2023-06-26T09:44:47;12.60;;;7.75;;
75195;SDS011;63773;42.282;22.782;2023-06-26T09:47:33;10.88;;;7.82;;
75195;SDS011;63773;42.282;22.782;2023-06-26T09:49:59;11.65;;;8.10;;
75195;SDS011;63773;42.282;22.782;2023-06-26T09:52:27;13.43;;;8.35;;
75195;SDS011;63773;42.282;22.782;2023-06-26T09:55:07;11.43;;;8.18;;
75195;SDS011;63773;42.282;22.782;2023-06-26T09:57:38;11.82;;;8.82;;
75195;SDS011;63773;42.282;22.782;2023-06-26T10:00:05;10.90;;;8.57;;
75195;SDS011;63773;42.282;22.782;2023-06-26T10:02:33;10.75;;;8.55;;
75195;SDS011;63773;42.282;22.782;2023-06-26T10:04:58;10.60;;;8.75;;
75195;SDS011;63773;42.282;22.782;2023-06-26T10:07:44;10.57;;;7.88;;
75195;SDS011;63773;42.282;22.782;2023-06-26T10:10:10;9.77;;;8.07;;
75195;SDS011;63773;42.282;22.782;2023-06-26T10:12:37;9.52;;;8.00;;
75195;SDS011;63773;42.282;22.782;2023-06-26T10:15:02;13.10;;;9.02;;
75195;SDS011;63773;42.282;22.782;2023-06-26T10:17:32;10.48;;;8.00;;
75195;SDS011;63773;42.282;22.782;2023-06-26T10:20:02;10.63;;;7.93;;
75195;SDS011;63773;42.282;22.782;2023-06-26T10:22:29;10.48;;;8.13;;
75195;SDS011;63773;42.282;22.782;2023-06-26T10:24:58;9.18;;;6.57;;
75195;SDS011;63773;42.282;22.782;2023-06-26T10:27:26;8.13;;;6.53;;
75195;SDS011;63773;42.282;22.782;2023-06-26T10:29:59;9.10;;;6.88;;
75195;SDS011;63773;42.282;22.782;2023-06-26T10:32:28;7.03;;;5.15;;
75195;SDS011;63773;42.282;22.782;2023-06-26T10:34:55;7.43;;;5.85;;
75195;SDS011;63773;42.282;22.782;2023-06-26T10:37:37;6.68;;;5.32;;
75195;SDS011;63773;42.282;22.782;2023-06-26T10:40:06;8.73;;;5.38;;
75195;SDS011;63773;42.282;22.782;2023-06-26T10:42:36;7.28;;;5.55;;
75195;SDS011;63773;42.282;22.782;2023-06-26T10:47:47;8.23;;;5.32;;
75195;SDS011;63773;42.282;22.782;2023-06-26T10:50:20;7.22;;;5.47;;
75195;SDS011;63773;42.282;22.782;2023-06-26T10:56:02;6.93;;;5.20;;
75195;SDS011;63773;42.282;22.782;2023-06-26T10:58:29;6.65;;;5.10;;
75195;SDS011;63773;42.282;22.782;2023-06-26T11:01:13;6.68;;;5.03;;
75195;SDS011;63773;42.282;22.782;2023-06-26T11:03:46;6.35;;;4.85;;
75195;SDS011;63773;42.282;22.782;2023-06-26T11:06:26;6.93;;;5.28;;
75195;SDS011;63773;42.282;22.782;2023-06-26T11:08:53;7.47;;;4.47;;
75195;SDS011;63773;42.282;22.782;2023-06-26T11:11:20;6.57;;;4.43;;
75195;SDS011;63773;42.282;22.782;2023-06-26T11:13:47;8.20;;;5.20;;
75195;SDS011;63773;42.282;22.782;2023-06-26T11:16:13;7.07;;;5.00;;
75195;SDS011;63773;42.282;22.782;2023-06-26T11:18:40;6.63;;;5.15;;
75195;SDS011;63773;42.282;22.782;2023-06-26T11:23:35;6.50;;;4.53;;
75195;SDS011;63773;42.282;22.782;2023-06-26T11:28:41;6.10;;;4.82;;
75195;SDS011;63773;42.282;22.782;2023-06-26T11:31:23;8.10;;;4.63;;
75195;SDS011;63773;42.282;22.782;2023-06-26T11:34:02;5.38;;;4.47;;
75195;SDS011;63773;42.282;22.782;2023-06-26T11:36:29;6.00;;;4.65;;
75195;SDS011;63773;42.282;22.782;2023-06-26T11:41:26;6.15;;;4.70;;
75195;SDS011;63773;42.282;22.782;2023-06-26T11:43:53;6.07;;;4.07;;
75195;SDS011;63773;42.282;22.782;2023-06-26T11:46:19;6.43;;;4.97;;
75195;SDS011;63773;42.282;22.782;2023-06-26T11:48:46;5.97;;;4.97;;
75195;SDS011;63773;42.282;22.782;2023-06-26T11:51:15;6.07;;;4.45;;
75195;SDS011;63773;42.282;22.782;2023-06-26T11:53:44;5.93;;;4.78;;
75195;SDS011;63773;42.282;22.782;2023-06-26T11:56:11;8.27;;;5.00;;
75195;SDS011;63773;42.282;22.782;2023-06-26T12:04:03;7.63;;;4.85;;
75195;SDS011;63773;42.282;22.782;2023-06-26T12:06:30;7.45;;;5.53;;
75195;SDS011;63773;42.282;22.782;2023-06-26T12:08:59;11.02;;;5.40;;
75195;SDS011;63773;42.282;22.782;2023-06-26T12:11:26;5.85;;;5.03;;
75195;SDS011;63773;42.282;22.782;2023-06-26T12:13:53;6.43;;;5.25;;
75195;SDS011;63773;42.282;22.782;2023-06-26T12:19:29;7.25;;;5.15;;
75195;SDS011;63773;42.282;22.782;2023-06-26T12:21:57;6.22;;;4.10;;
75195;SDS011;63773;42.282;22.782;2023-06-26T12:24:23;8.13;;;4.93;;
75195;SDS011;63773;42.282;22.782;2023-06-26T12:26:50;6.90;;;4.70;;
75195;SDS011;63773;42.282;22.782;2023-06-26T12:29:19;9.00;;;5.10;;
75195;SDS011;63773;42.282;22.782;2023-06-26T12:31:51;6.15;;;4.85;;
75195;SDS011;63773;42.282;22.782;2023-06-26T12:34:18;6.75;;;4.80;;
75195;SDS011;63773;42.282;22.782;2023-06-26T12:36:49;6.93;;;5.20;;
75195;SDS011;63773;42.282;22.782;2023-06-26T12:39:16;6.60;;;4.85;;
75195;SDS011;63773;42.282;22.782;2023-06-26T12:41:54;6.13;;;5.35;;
75195;SDS011;63773;42.282;22.782;2023-06-26T12:44:21;6.95;;;5.68;;
75195;SDS011;63773;42.282;22.782;2023-06-26T12:46:48;6.35;;;5.05;;
75195;SDS011;63773;42.282;22.782;2023-06-26T12:49:15;5.65;;;4.82;;
75195;SDS011;63773;42.282;22.782;2023-06-26T12:51:41;6.47;;;4.97;;
75195;SDS011;63773;42.282;22.782;2023-06-26T12:54:08;6.93;;;4.78;;
75195;SDS011;63773;42.282;22.782;2023-06-26T12:56:34;6.13;;;4.75;;
75195;SDS011;63773;42.282;22.782;2023-06-26T12:58:59;6.50;;;5.00;;
75195;SDS011;63773;42.282;22.782;2023-06-26T13:01:26;9.55;;;5.15;;
75195;SDS011;63773;42.282;22.782;2023-06-26T13:03:53;5.88;;;5.10;;
75195;SDS011;63773;42.282;22.782;2023-06-26T13:06:18;7.70;;;5.00;;
75195;SDS011;63773;42.282;22.782;2023-06-26T13:08:44;9.00;;;5.97;;
75195;SDS011;63773;42.282;22.782;2023-06-26T13:11:10;6.40;;;4.90;;
75195;SDS011;63773;42.282;22.782;2023-06-26T13:13:35;5.65;;;4.70;;
75195;SDS011;63773;42.282;22.782;2023-06-26T13:16:00;9.18;;;5.63;;
75195;SDS011;63773;42.282;22.782;2023-06-26T13:18:27;7.38;;;6.57;;
75195;SDS011;63773;42.282;22.782;2023-06-26T13:20:52;6.85;;;5.30;;
75195;SDS011;63773;42.282;22.782;2023-06-26T13:23:18;6.15;;;5.00;;
75195;SDS011;63773;42.282;22.782;2023-06-26T13:25:44;6.70;;;5.47;;
75195;SDS011;63773;42.282;22.782;2023-06-26T13:28:10;7.13;;;5.50;;
75195;SDS011;63773;42.282;22.782;2023-06-26T13:30:35;7.38;;;5.25;;
75195;SDS011;63773;42.282;22.782;2023-06-26T13:33:01;7.13;;;5.57;;
75195;SDS011;63773;42.282;22.782;2023-06-26T13:35:26;6.60;;;5.40;;
75195;SDS011;63773;42.282;22.782;2023-06-26T13:37:52;6.18;;;5.30;;
75195;SDS011;63773;42.282;22.782;2023-06-26T13:40:17;6.45;;;5.50;;
75195;SDS011;63773;42.282;22.782;2023-06-26T13:42:42;6.00;;;4.82;;
75195;SDS011;63773;42.282;22.782;2023-06-26T13:45:09;7.85;;;5.55;;
75195;SDS011;63773;42.282;22.782;2023-06-26T13:47:35;8.98;;;5.47;;
75195;SDS011;63773;42.282;22.782;2023-06-26T13:50:02;8.60;;;5.90;;
75195;SDS011;63773;42.282;22.782;2023-06-26T13:52:29;7.55;;;6.13;;
75195;SDS011;63773;42.282;22.782;2023-06-26T13:54:54;8.20;;;5.93;;
75195;SDS011;63773;42.282;22.782;2023-06-26T13:57:20;6.35;;;5.45;;
75195;SDS011;63773;42.282;22.782;2023-06-26T13:59:47;6.18;;;5.13;;
75195;SDS011;63773;42.282;22.782;2023-06-26T14:02:13;9.07;;;5.60;;
75195;SDS011;63773;42.282;22.782;2023-06-26T14:04:38;7.68;;;6.00;;
75195;SDS011;63773;42.282;22.782;2023-06-26T14:07:04;7.18;;;5.10;;
75195;SDS011;63773;42.282;22.782;2023-06-26T14:09:30;8.18;;;5.72;;
75195;SDS011;63773;42.282;22.782;2023-06-26T14:11:55;6.70;;;5.53;;
75195;SDS011;63773;42.282;22.782;2023-06-26T14:14:20;6.20;;;5.32;;
75195;SDS011;63773;42.282;22.782;2023-06-26T14:16:46;7.45;;;5.68;;
75195;SDS011;63773;42.282;22.782;2023-06-26T14:19:14;6.57;;;5.60;;
75195;SDS011;63773;42.282;22.782;2023-06-26T14:21:40;8.35;;;5.63;;
75195;SDS011;63773;42.282;22.782;2023-06-26T14:24:06;7.57;;;6.47;;
75195;SDS011;63773;42.282;22.782;2023-06-26T14:26:32;6.40;;;5.30;;
75195;SDS011;63773;42.282;22.782;2023-06-26T14:28:58;8.13;;;6.50;;
75195;SDS011;63773;42.282;22.782;2023-06-26T14:31:24;8.00;;;6.28;;
75195;SDS011;63773;42.282;22.782;2023-06-26T14:33:50;6.85;;;5.72;;
75195;SDS011;63773;42.282;22.782;2023-06-26T14:36:15;6.70;;;5.20;;
75195;SDS011;63773;42.282;22.782;2023-06-26T14:38:41;8.40;;;6.00;;
75195;SDS011;63773;42.282;22.782;2023-06-26T14:41:06;7.30;;;5.75;;
75195;SDS011;63773;42.282;22.782;2023-06-26T14:43:32;7.50;;;5.25;;
75195;SDS011;63773;42.282;22.782;2023-06-26T14:45:57;7.38;;;5.22;;
75195;SDS011;63773;42.282;22.782;2023-06-26T14:48:22;7.47;;;5.63;;
75195;SDS011;63773;42.282;22.782;2023-06-26T14:50:48;6.47;;;4.72;;
75195;SDS011;63773;42.282;22.782;2023-06-26T14:53:13;7.07;;;5.53;;
75195;SDS011;63773;42.282;22.782;2023-06-26T14:55:39;7.28;;;5.38;;
75195;SDS011;63773;42.282;22.782;2023-06-26T14:58:04;5.90;;;5.22;;
75195;SDS011;63773;42.282;22.782;2023-06-26T15:00:29;9.93;;;5.75;;
75195;SDS011;63773;42.282;22.782;2023-06-26T15:02:55;7.18;;;5.35;;